Tyrone, Colorado
Current Conditions -  °F | °C
As of 8:54 AM on Thursday 27 Nov 2014 (Local Time) from KTAD Reporting Station
Clear Clear  
Wind Chill:   Ceiling: Unl
Heat Index:   Visibility: 10mi
Dew Point: -6°   Wind: 14mph
Humidity: 34%   Direction: 260°W
Pressure: 30.32"   Gusts: NA
Location:  37.5307°N, 104.063°W
Report Text: KTAD 271554Z AUTO 26012KT 10SM CLR 09/M06 A3032 RMK AO2 SLP256 T00891061
Loading
Personal Weather Stations






























Interactive Weather Map New forecast layout! Learn more

10-Day Weather Forecast

Advertisements
Track Severe Weather on mobile